Thornburg, VA

12:16 PM EDT on October 24, 2014 (GMT -0400)
Finney Estates | Change Station
CLOSE
Current Station
Personal Weather Station
Location: Spotsylvania, VA
Elevation: 276 ft
Nearby Weather Stations

Elev 276 ft 38.14 °N, 77.58 °W | Updated 1 second ago

Partly Cloudy
Partly Cloudy
61.4 °F
Feels Like 61.4 °F
N
0.0
Wind Variable Wind from WNW
Gusts 7.0 mph

Today
High -- | Low -- °F
--% Chance of Precip.
Yesterday
High -- | Low -- °F
Precip. -- in
7:27 AM 6:20 PM
New Moon, 1% visible
Pressure 29.99 in
Visibility 10.0 miles
Clouds Clear
Dew Point 49 °F
Humidity 63%
Rainfall 0.00 in
Snow Depth Not available.
UV 2.5 out of 12
Pollen 1.80 out of 12
Air Quality Not available.
Flu Activity Local Activity
METAR KEZF 241555Z AUTO 30008KT 270V340 10SM CLR 18/06 A2999 RMK AO2 T01810062

More Conditions Fewer Conditions

Pressure 29.99 in
Visibility 10.0 miles
Clouds Clear
Dew Point 49 °F
Humidity 63%
Rainfall 0.00 in
Snow Depth Not available.
UV 2.5 out of 12
Pollen 1.80 out of 12
Air Quality Not available.
Flu Activity Local Activity
METAR KEZF 241555Z AUTO 30008KT 270V340 10SM CLR 18/06 A2999 RMK AO2 T01810062

More Conditions Fewer Conditions

10-Day Weather Forecast

Almanac

Astronomy

Oct. 24, 2014 Rise Set
Actual Time 7:27 AM EDT 6:20 PM EDT
Civil Twilight 7:00 AM EDT 6:47 PM EDT
Nautical Twilight 6:29 AM EDT 7:17 PM EDT
Astronomical Twilight 5:59 AM EDT 7:48 PM EDT
Moon 8:04 AM EDT 6:59 PM EDT
Length of Visible Light 11h 46m
Length of Day
10h 52m
Tomorrow will be 2m 16s shorter.
New Moon, 1% of the Moon is Illuminated
Today
New Moon
Oct 30
First Quarter
Nov 6
Full
Nov 14
Last Quarter
Nov 22
New

Today's Extremes

State Highs State Lows

Community

WunderPhotos

Upload Photos

1,764,600 photos uploaded!

WunderBlogs® & News

By Dr. Jeff Masters
Director of Meteorology, Weather Underground
By Kari Strenfel
Meteorologist, Weather Underground
By Christopher C. Burt
Weather Historian, Weather Underground
October 24, 2014
October 24, 2014
October 24, 2014

Nearby

Snow Depth

Station Depth Elevation
No new snow has been reported.

Earthquake Activity

City Distance Mag. Time & Date
No recent earthquake activity has been reported nearby.
Minimum magnitude displayed is 2.5.

Coastal Water Temperatures

Place Temperature
Washington, DC 61.0 °F
Lewisetta, VA 59.0 °F
Solomons Island, MD 64.0 °F

Nearby Weather Stations